sensor_id;sensor_type;location;lat;lon;timestamp;P1;durP1;ratioP1;P2;durP2;ratioP2
52396;SDS011;38322;53.108;6.308;2023-04-15T05:02:43;24.55;;;15.93;;
52396;SDS011;38322;53.108;6.308;2023-04-15T05:05:09;22.05;;;15.55;;
52396;SDS011;38322;53.108;6.308;2023-04-15T05:07:36;25.80;;;16.17;;
52396;SDS011;38322;53.108;6.308;2023-04-15T05:10:02;26.05;;;16.77;;
52396;SDS011;38322;53.108;6.308;2023-04-15T05:12:29;22.60;;;15.20;;
52396;SDS011;38322;53.108;6.308;2023-04-15T05:14:54;22.63;;;16.05;;
52396;SDS011;38322;53.108;6.308;2023-04-15T05:17:20;22.98;;;15.07;;
52396;SDS011;38322;53.108;6.308;2023-04-15T05:19:46;20.98;;;14.52;;
52396;SDS011;38322;53.108;6.308;2023-04-15T05:22:12;22.95;;;15.80;;
52396;SDS011;38322;53.108;6.308;2023-04-15T05:24:38;21.52;;;14.73;;
52396;SDS011;38322;53.108;6.308;2023-04-15T05:27:04;20.90;;;15.20;;
52396;SDS011;38322;53.108;6.308;2023-04-15T05:29:30;21.02;;;15.15;;
52396;SDS011;38322;53.108;6.308;2023-04-15T05:31:55;20.42;;;15.43;;
52396;SDS011;38322;53.108;6.308;2023-04-15T05:34:21;19.23;;;13.40;;
52396;SDS011;38322;53.108;6.308;2023-04-15T05:36:47;19.52;;;12.98;;
52396;SDS011;38322;53.108;6.308;2023-04-15T05:39:13;26.27;;;16.08;;
52396;SDS011;38322;53.108;6.308;2023-04-15T05:41:39;21.10;;;14.52;;
52396;SDS011;38322;53.108;6.308;2023-04-15T05:44:05;19.63;;;14.85;;
52396;SDS011;38322;53.108;6.308;2023-04-15T05:46:30;24.48;;;13.80;;
52396;SDS011;38322;53.108;6.308;2023-04-15T05:48:56;17.58;;;13.32;;
52396;SDS011;38322;53.108;6.308;2023-04-15T05:51:22;18.77;;;13.85;;
52396;SDS011;38322;53.108;6.308;2023-04-15T05:53:48;21.88;;;14.23;;
52396;SDS011;38322;53.108;6.308;2023-04-15T05:56:13;19.13;;;14.50;;
52396;SDS011;38322;53.108;6.308;2023-04-15T05:58:39;20.20;;;13.63;;
52396;SDS011;38322;53.108;6.308;2023-04-15T06:01:05;16.27;;;13.05;;
52396;SDS011;38322;53.108;6.308;2023-04-15T06:03:31;21.80;;;13.30;;
52396;SDS011;38322;53.108;6.308;2023-04-15T06:05:57;16.92;;;11.48;;
52396;SDS011;38322;53.108;6.308;2023-04-15T06:08:23;18.95;;;12.90;;
52396;SDS011;38322;53.108;6.308;2023-04-15T06:10:49;17.83;;;13.25;;
52396;SDS011;38322;53.108;6.308;2023-04-15T06:13:15;17.77;;;13.90;;
52396;SDS011;38322;53.108;6.308;2023-04-15T06:15:41;15.95;;;12.02;;
52396;SDS011;38322;53.108;6.308;2023-04-15T06:18:07;19.10;;;12.55;;
52396;SDS011;38322;53.108;6.308;2023-04-15T06:20:33;14.57;;;11.82;;
52396;SDS011;38322;53.108;6.308;2023-04-15T06:22:58;16.30;;;12.32;;
52396;SDS011;38322;53.108;6.308;2023-04-15T06:25:24;22.70;;;13.05;;
52396;SDS011;38322;53.108;6.308;2023-04-15T06:27:50;16.23;;;12.18;;
52396;SDS011;38322;53.108;6.308;2023-04-15T06:30:16;15.07;;;11.05;;
52396;SDS011;38322;53.108;6.308;2023-04-15T06:32:42;16.63;;;12.77;;
52396;SDS011;38322;53.108;6.308;2023-04-15T06:35:08;17.90;;;13.23;;
52396;SDS011;38322;53.108;6.308;2023-04-15T06:37:34;15.88;;;13.27;;
52396;SDS011;38322;53.108;6.308;2023-04-15T06:40:00;21.05;;;12.63;;
52396;SDS011;38322;53.108;6.308;2023-04-15T06:42:26;15.98;;;12.15;;
52396;SDS011;38322;53.108;6.308;2023-04-15T06:44:52;22.80;;;13.13;;
52396;SDS011;38322;53.108;6.308;2023-04-15T06:47:17;17.60;;;12.70;;
52396;SDS011;38322;53.108;6.308;2023-04-15T06:49:43;15.25;;;13.63;;
52396;SDS011;38322;53.108;6.308;2023-04-15T06:52:09;18.38;;;12.30;;
52396;SDS011;38322;53.108;6.308;2023-04-15T06:54:35;17.13;;;11.98;;
52396;SDS011;38322;53.108;6.308;2023-04-15T06:57:01;16.75;;;12.35;;
52396;SDS011;38322;53.108;6.308;2023-04-15T06:59:27;16.80;;;13.43;;
52396;SDS011;38322;53.108;6.308;2023-04-15T07:01:53;20.52;;;12.98;;
52396;SDS011;38322;53.108;6.308;2023-04-15T07:04:19;16.83;;;11.05;;
52396;SDS011;38322;53.108;6.308;2023-04-15T07:06:45;23.10;;;12.15;;
52396;SDS011;38322;53.108;6.308;2023-04-15T07:09:11;16.38;;;11.80;;
52396;SDS011;38322;53.108;6.308;2023-04-15T07:11:37;17.65;;;12.25;;
52396;SDS011;38322;53.108;6.308;2023-04-15T07:14:03;15.90;;;11.07;;
52396;SDS011;38322;53.108;6.308;2023-04-15T07:16:29;15.07;;;10.82;;
52396;SDS011;38322;53.108;6.308;2023-04-15T07:18:55;13.65;;;10.48;;
52396;SDS011;38322;53.108;6.308;2023-04-15T07:21:21;14.65;;;10.93;;
52396;SDS011;38322;53.108;6.308;2023-04-15T07:23:48;14.63;;;9.90;;
52396;SDS011;38322;53.108;6.308;2023-04-15T07:26:13;15.80;;;10.57;;
52396;SDS011;38322;53.108;6.308;2023-04-15T07:28:39;12.60;;;8.95;;
52396;SDS011;38322;53.108;6.308;2023-04-15T07:31:05;12.90;;;9.07;;
52396;SDS011;38322;53.108;6.308;2023-04-15T07:33:31;11.32;;;8.20;;
52396;SDS011;38322;53.108;6.308;2023-04-15T07:35:57;9.65;;;5.93;;
52396;SDS011;38322;53.108;6.308;2023-04-15T07:38:23;9.60;;;7.03;;
52396;SDS011;38322;53.108;6.308;2023-04-15T07:40:50;11.02;;;8.27;;
52396;SDS011;38322;53.108;6.308;2023-04-15T07:43:16;9.55;;;6.18;;
52396;SDS011;38322;53.108;6.308;2023-04-15T07:45:42;8.70;;;6.63;;
52396;SDS011;38322;53.108;6.308;2023-04-15T07:48:07;6.03;;;5.20;;
52396;SDS011;38322;53.108;6.308;2023-04-15T07:50:33;7.60;;;5.50;;
52396;SDS011;38322;53.108;6.308;2023-04-15T07:52:59;7.38;;;5.40;;
52396;SDS011;38322;53.108;6.308;2023-04-15T07:55:25;13.18;;;5.70;;
52396;SDS011;38322;53.108;6.308;2023-04-15T07:57:51;9.70;;;6.03;;
52396;SDS011;38322;53.108;6.308;2023-04-15T08:00:16;8.70;;;6.15;;
52396;SDS011;38322;53.108;6.308;2023-04-15T08:02:42;7.13;;;5.50;;
52396;SDS011;38322;53.108;6.308;2023-04-15T08:05:10;7.18;;;5.35;;
52396;SDS011;38322;53.108;6.308;2023-04-15T08:07:37;11.13;;;6.57;;
52396;SDS011;38322;53.108;6.308;2023-04-15T08:10:03;13.98;;;5.65;;
52396;SDS011;38322;53.108;6.308;2023-04-15T08:12:29;6.07;;;4.68;;
52396;SDS011;38322;53.108;6.308;2023-04-15T08:14:55;8.82;;;6.15;;
52396;SDS011;38322;53.108;6.308;2023-04-15T08:17:21;9.52;;;6.95;;
52396;SDS011;38322;53.108;6.308;2023-04-15T08:19:48;6.82;;;4.93;;
52396;SDS011;38322;53.108;6.308;2023-04-15T08:22:14;9.32;;;6.57;;
52396;SDS011;38322;53.108;6.308;2023-04-15T08:24:40;6.93;;;5.70;;
52396;SDS011;38322;53.108;6.308;2023-04-15T08:27:06;9.77;;;5.57;;
52396;SDS011;38322;53.108;6.308;2023-04-15T08:29:32;8.77;;;5.47;;
52396;SDS011;38322;53.108;6.308;2023-04-15T08:31:59;7.57;;;4.00;;
52396;SDS011;38322;53.108;6.308;2023-04-15T08:34:25;11.05;;;4.72;;
52396;SDS011;38322;53.108;6.308;2023-04-15T08:36:51;6.32;;;4.15;;
52396;SDS011;38322;53.108;6.308;2023-04-15T08:39:17;8.82;;;5.30;;
52396;SDS011;38322;53.108;6.308;2023-04-15T08:41:44;7.45;;;4.40;;
52396;SDS011;38322;53.108;6.308;2023-04-15T08:44:12;5.85;;;4.75;;
52396;SDS011;38322;53.108;6.308;2023-04-15T08:46:38;9.02;;;4.80;;
52396;SDS011;38322;53.108;6.308;2023-04-15T08:49:10;6.82;;;4.90;;
52396;SDS011;38322;53.108;6.308;2023-04-15T08:51:37;4.70;;;2.70;;
52396;SDS011;38322;53.108;6.308;2023-04-15T08:54:04;7.40;;;4.38;;
52396;SDS011;38322;53.108;6.308;2023-04-15T08:56:32;7.15;;;3.60;;
52396;SDS011;38322;53.108;6.308;2023-04-15T08:58:58;8.05;;;4.15;;
52396;SDS011;38322;53.108;6.308;2023-04-15T09:01:24;7.55;;;4.53;;
52396;SDS011;38322;53.108;6.308;2023-04-15T09:03:51;6.05;;;3.38;;
52396;SDS011;38322;53.108;6.308;2023-04-15T09:06:19;2.72;;;2.30;;
52396;SDS011;38322;53.108;6.308;2023-04-15T09:08:46;8.95;;;3.38;;
52396;SDS011;38322;53.108;6.308;2023-04-15T09:11:12;4.30;;;2.85;;
52396;SDS011;38322;53.108;6.308;2023-04-15T09:13:38;7.30;;;2.63;;
52396;SDS011;38322;53.108;6.308;2023-04-15T09:16:04;5.07;;;3.13;;
52396;SDS011;38322;53.108;6.308;2023-04-15T09:18:31;6.18;;;3.35;;
52396;SDS011;38322;53.108;6.308;2023-04-15T09:23:32;6.85;;;3.58;;
52396;SDS011;38322;53.108;6.308;2023-04-15T09:26:00;4.40;;;2.50;;
52396;SDS011;38322;53.108;6.308;2023-04-15T09:28:27;6.30;;;3.33;;
52396;SDS011;38322;53.108;6.308;2023-04-15T09:30:55;4.70;;;2.85;;
52396;SDS011;38322;53.108;6.308;2023-04-15T09:33:22;3.45;;;2.50;;
52396;SDS011;38322;53.108;6.308;2023-04-15T09:35:58;7.03;;;2.05;;
52396;SDS011;38322;53.108;6.308;2023-04-15T09:38:26;3.92;;;2.13;;
52396;SDS011;38322;53.108;6.308;2023-04-15T09:40:52;3.17;;;1.77;;
52396;SDS011;38322;53.108;6.308;2023-04-15T09:43:18;3.50;;;1.77;;
52396;SDS011;38322;53.108;6.308;2023-04-15T09:45:49;4.50;;;1.75;;
52396;SDS011;38322;53.108;6.308;2023-04-15T09:50:47;4.72;;;1.75;;
52396;SDS011;38322;53.108;6.308;2023-04-15T09:53:16;5.95;;;1.33;;
52396;SDS011;38322;53.108;6.308;2023-04-15T09:55:44;1.75;;;0.85;;
52396;SDS011;38322;53.108;6.308;2023-04-15T09:58:23;2.50;;;1.40;;
52396;SDS011;38322;53.108;6.308;2023-04-15T10:00:51;1.63;;;0.77;;
52396;SDS011;38322;53.108;6.308;2023-04-15T10:03:20;1.67;;;0.60;;
52396;SDS011;38322;53.108;6.308;2023-04-15T10:05:48;2.50;;;1.05;;
52396;SDS011;38322;53.108;6.308;2023-04-15T10:08:16;1.85;;;0.40;;
52396;SDS011;38322;53.108;6.308;2023-04-15T10:10:44;3.65;;;0.85;;
52396;SDS011;38322;53.108;6.308;2023-04-15T10:13:12;2.72;;;0.73;;
52396;SDS011;38322;53.108;6.308;2023-04-15T10:15:40;1.90;;;1.20;;
52396;SDS011;38322;53.108;6.308;2023-04-15T10:18:09;2.50;;;0.75;;
52396;SDS011;38322;53.108;6.308;2023-04-15T10:20:37;2.60;;;0.95;;
52396;SDS011;38322;53.108;6.308;2023-04-15T10:23:04;2.53;;;0.95;;
52396;SDS011;38322;53.108;6.308;2023-04-15T10:25:31;3.05;;;0.50;;
52396;SDS011;38322;53.108;6.308;2023-04-15T10:27:58;2.28;;;0.90;;
52396;SDS011;38322;53.108;6.308;2023-04-15T10:30:24;4.75;;;1.58;;
52396;SDS011;38322;53.108;6.308;2023-04-15T10:32:50;1.42;;;0.85;;
52396;SDS011;38322;53.108;6.308;2023-04-15T10:35:17;1.67;;;0.60;;
52396;SDS011;38322;53.108;6.308;2023-04-15T10:37:45;1.15;;;0.65;;
52396;SDS011;38322;53.108;6.308;2023-04-15T10:40:30;4.50;;;0.80;;
52396;SDS011;38322;53.108;6.308;2023-04-15T10:42:59;1.73;;;0.68;;
52396;SDS011;38322;53.108;6.308;2023-04-15T10:45:33;3.63;;;0.80;;
52396;SDS011;38322;53.108;6.308;2023-04-15T10:48:01;2.95;;;0.95;;
52396;SDS011;38322;53.108;6.308;2023-04-15T10:50:30;1.20;;;0.50;;
52396;SDS011;38322;53.108;6.308;2023-04-15T10:52:57;1.30;;;0.57;;
52396;SDS011;38322;53.108;6.308;2023-04-15T10:55:24;5.00;;;0.85;;
52396;SDS011;38322;53.108;6.308;2023-04-15T10:57:52;2.22;;;1.20;;
52396;SDS011;38322;53.108;6.308;2023-04-15T11:00:19;1.60;;;0.98;;
52396;SDS011;38322;53.108;6.308;2023-04-15T11:02:51;3.35;;;1.05;;
52396;SDS011;38322;53.108;6.308;2023-04-15T11:05:21;3.08;;;0.88;;
52396;SDS011;38322;53.108;6.308;2023-04-15T11:08:07;2.53;;;1.13;;
52396;SDS011;38322;53.108;6.308;2023-04-15T11:13:03;5.03;;;1.80;;
52396;SDS011;38322;53.108;6.308;2023-04-15T11:15:39;3.72;;;0.90;;
52396;SDS011;38322;53.108;6.308;2023-04-15T11:18:08;3.60;;;1.17;;
52396;SDS011;38322;53.108;6.308;2023-04-15T11:20:34;2.08;;;1.25;;
52396;SDS011;38322;53.108;6.308;2023-04-15T11:23:01;4.75;;;1.10;;
52396;SDS011;38322;53.108;6.308;2023-04-15T11:25:29;7.30;;;1.70;;
52396;SDS011;38322;53.108;6.308;2023-04-15T11:27:57;7.20;;;2.13;;
52396;SDS011;38322;53.108;6.308;2023-04-15T11:30:25;3.05;;;0.82;;
52396;SDS011;38322;53.108;6.308;2023-04-15T11:32:54;3.85;;;2.03;;
52396;SDS011;38322;53.108;6.308;2023-04-15T11:35:24;3.40;;;1.33;;
52396;SDS011;38322;53.108;6.308;2023-04-15T11:37:50;3.72;;;1.95;;
52396;SDS011;38322;53.108;6.308;2023-04-15T11:40:21;3.80;;;1.15;;
52396;SDS011;38322;53.108;6.308;2023-04-15T11:43:05;2.17;;;1.00;;
52396;SDS011;38322;53.108;6.308;2023-04-15T11:45:33;3.70;;;1.05;;
52396;SDS011;38322;53.108;6.308;2023-04-15T11:48:05;5.00;;;1.55;;
52396;SDS011;38322;53.108;6.308;2023-04-15T11:50:33;2.55;;;1.00;;
52396;SDS011;38322;53.108;6.308;2023-04-15T11:53:01;5.03;;;1.70;;
52396;SDS011;38322;53.108;6.308;2023-04-15T11:55:30;3.75;;;1.65;;
52396;SDS011;38322;53.108;6.308;2023-04-15T12:00:40;10.15;;;2.30;;
52396;SDS011;38322;53.108;6.308;2023-04-15T12:03:12;4.78;;;1.73;;
52396;SDS011;38322;53.108;6.308;2023-04-15T12:08:46;10.23;;;1.83;;
52396;SDS011;38322;53.108;6.308;2023-04-15T12:11:14;2.10;;;0.75;;
52396;SDS011;38322;53.108;6.308;2023-04-15T12:13:42;6.22;;;1.00;;
52396;SDS011;38322;53.108;6.308;2023-04-15T12:16:10;9.20;;;3.15;;
52396;SDS011;38322;53.108;6.308;2023-04-15T12:18:36;9.23;;;2.35;;
52396;SDS011;38322;53.108;6.308;2023-04-15T12:21:08;8.00;;;2.40;;
52396;SDS011;38322;53.108;6.308;2023-04-15T12:26:04;4.75;;;0.93;;
52396;SDS011;38322;53.108;6.308;2023-04-15T12:28:31;3.80;;;1.60;;
52396;SDS011;38322;53.108;6.308;2023-04-15T12:30:58;3.95;;;1.27;;
52396;SDS011;38322;53.108;6.308;2023-04-15T12:33:31;7.22;;;1.00;;
52396;SDS011;38322;53.108;6.308;2023-04-15T12:35:57;6.88;;;1.30;;
52396;SDS011;38322;53.108;6.308;2023-04-15T12:38:23;6.03;;;1.95;;
52396;SDS011;38322;53.108;6.308;2023-04-15T12:40:49;6.93;;;1.55;;
52396;SDS011;38322;53.108;6.308;2023-04-15T12:43:15;4.25;;;0.65;;
52396;SDS011;38322;53.108;6.308;2023-04-15T12:45:41;6.47;;;0.75;;
52396;SDS011;38322;53.108;6.308;2023-04-15T12:48:07;3.92;;;0.75;;
52396;SDS011;38322;53.108;6.308;2023-04-15T12:50:34;4.57;;;0.55;;
52396;SDS011;38322;53.108;6.308;2023-04-15T12:53:00;4.35;;;1.02;;
52396;SDS011;38322;53.108;6.308;2023-04-15T12:55:27;10.30;;;1.75;;
52396;SDS011;38322;53.108;6.308;2023-04-15T12:57:55;7.00;;;1.05;;
52396;SDS011;38322;53.108;6.308;2023-04-15T13:00:21;7.40;;;1.15;;
52396;SDS011;38322;53.108;6.308;2023-04-15T13:02:47;5.40;;;1.17;;
52396;SDS011;38322;53.108;6.308;2023-04-15T13:05:13;12.95;;;1.85;;
52396;SDS011;38322;53.108;6.308;2023-04-15T13:07:41;7.50;;;1.63;;
52396;SDS011;38322;53.108;6.308;2023-04-15T13:10:07;5.55;;;0.93;;
52396;SDS011;38322;53.108;6.308;2023-04-15T13:12:33;7.07;;;0.38;;
52396;SDS011;38322;53.108;6.308;2023-04-15T13:15:01;5.28;;;0.55;;
52396;SDS011;38322;53.108;6.308;2023-04-15T13:17:28;6.85;;;1.25;;
52396;SDS011;38322;53.108;6.308;2023-04-15T13:19:54;2.10;;;0.85;;
52396;SDS011;38322;53.108;6.308;2023-04-15T13:22:20;4.45;;;1.10;;
52396;SDS011;38322;53.108;6.308;2023-04-15T13:24:45;8.90;;;1.05;;
52396;SDS011;38322;53.108;6.308;2023-04-15T13:27:11;14.35;;;1.00;;
52396;SDS011;38322;53.108;6.308;2023-04-15T13:29:37;8.32;;;1.58;;
52396;SDS011;38322;53.108;6.308;2023-04-15T13:32:04;6.30;;;0.88;;
52396;SDS011;38322;53.108;6.308;2023-04-15T13:34:30;5.63;;;1.25;;
52396;SDS011;38322;53.108;6.308;2023-04-15T13:36:56;2.13;;;1.23;;
52396;SDS011;38322;53.108;6.308;2023-04-15T13:39:22;5.53;;;0.77;;
52396;SDS011;38322;53.108;6.308;2023-04-15T13:41:48;5.28;;;1.15;;
52396;SDS011;38322;53.108;6.308;2023-04-15T13:44:14;11.15;;;1.80;;
52396;SDS011;38322;53.108;6.308;2023-04-15T13:46:40;13.10;;;2.15;;
52396;SDS011;38322;53.108;6.308;2023-04-15T13:49:06;11.35;;;1.38;;
52396;SDS011;38322;53.108;6.308;2023-04-15T13:51:32;6.85;;;0.88;;
52396;SDS011;38322;53.108;6.308;2023-04-15T13:54:01;7.25;;;0.80;;
52396;SDS011;38322;53.108;6.308;2023-04-15T13:56:27;4.65;;;1.10;;
52396;SDS011;38322;53.108;6.308;2023-04-15T13:58:53;7.47;;;0.80;;
52396;SDS011;38322;53.108;6.308;2023-04-15T14:01:23;10.00;;;3.03;;
52396;SDS011;38322;53.108;6.308;2023-04-15T14:03:50;9.57;;;1.80;;
52396;SDS011;38322;53.108;6.308;2023-04-15T14:06:15;6.72;;;1.20;;
52396;SDS011;38322;53.108;6.308;2023-04-15T14:08:41;16.58;;;1.42;;
52396;SDS011;38322;53.108;6.308;2023-04-15T14:11:07;10.32;;;0.68;;
52396;SDS011;38322;53.108;6.308;2023-04-15T14:13:33;5.22;;;1.15;;
52396;SDS011;38322;53.108;6.308;2023-04-15T14:15:59;4.13;;;0.40;;
52396;SDS011;38322;53.108;6.308;2023-04-15T14:18:25;8.93;;;2.25;;
52396;SDS011;38322;53.108;6.308;2023-04-15T14:20:50;8.63;;;1.55;;
52396;SDS011;38322;53.108;6.308;2023-04-15T14:23:16;4.55;;;0.88;;
52396;SDS011;38322;53.108;6.308;2023-04-15T14:25:42;5.70;;;1.05;;
52396;SDS011;38322;53.108;6.308;2023-04-15T14:28:08;4.50;;;0.98;;
52396;SDS011;38322;53.108;6.308;2023-04-15T14:30:34;5.13;;;0.88;;
52396;SDS011;38322;53.108;6.308;2023-04-15T14:33:00;3.38;;;0.85;;
52396;SDS011;38322;53.108;6.308;2023-04-15T14:35:26;11.73;;;1.35;;
52396;SDS011;38322;53.108;6.308;2023-04-15T14:37:52;8.88;;;2.50;;
52396;SDS011;38322;53.108;6.308;2023-04-15T14:40:20;6.60;;;1.42;;
52396;SDS011;38322;53.108;6.308;2023-04-15T14:42:46;5.15;;;0.95;;
52396;SDS011;38322;53.108;6.308;2023-04-15T14:45:12;6.88;;;1.23;;
52396;SDS011;38322;53.108;6.308;2023-04-15T14:47:37;12.95;;;1.73;;
52396;SDS011;38322;53.108;6.308;2023-04-15T14:50:03;6.55;;;1.70;;
52396;SDS011;38322;53.108;6.308;2023-04-15T14:52:30;7.10;;;1.48;;
52396;SDS011;38322;53.108;6.308;2023-04-15T14:55:04;9.50;;;1.23;;
52396;SDS011;38322;53.108;6.308;2023-04-15T14:57:30;15.18;;;2.60;;
52396;SDS011;38322;53.108;6.308;2023-04-15T14:59:56;14.20;;;3.80;;
52396;SDS011;38322;53.108;6.308;2023-04-15T15:02:23;5.68;;;1.13;;
52396;SDS011;38322;53.108;6.308;2023-04-15T15:04:49;10.85;;;1.30;;
52396;SDS011;38322;53.108;6.308;2023-04-15T15:07:15;7.90;;;2.30;;
52396;SDS011;38322;53.108;6.308;2023-04-15T15:09:41;7.90;;;1.33;;
52396;SDS011;38322;53.108;6.308;2023-04-15T15:12:07;7.90;;;2.28;;
52396;SDS011;38322;53.108;6.308;2023-04-15T15:14:33;12.50;;;1.20;;
52396;SDS011;38322;53.108;6.308;2023-04-15T15:16:59;11.38;;;1.95;;
52396;SDS011;38322;53.108;6.308;2023-04-15T15:19:26;11.60;;;1.85;;
52396;SDS011;38322;53.108;6.308;2023-04-15T15:21:51;8.75;;;1.65;;
52396;SDS011;38322;53.108;6.308;2023-04-15T15:24:17;10.88;;;1.70;;
52396;SDS011;38322;53.108;6.308;2023-04-15T15:26:43;10.13;;;1.70;;
52396;SDS011;38322;53.108;6.308;2023-04-15T15:29:09;10.40;;;1.83;;
52396;SDS011;38322;53.108;6.308;2023-04-15T15:31:35;8.63;;;1.83;;
52396;SDS011;38322;53.108;6.308;2023-04-15T15:34:01;8.60;;;3.40;;
52396;SDS011;38322;53.108;6.308;2023-04-15T15:36:28;13.80;;;1.80;;
52396;SDS011;38322;53.108;6.308;2023-04-15T15:38:56;13.93;;;2.47;;
52396;SDS011;38322;53.108;6.308;2023-04-15T15:41:22;7.82;;;1.63;;
52396;SDS011;38322;53.108;6.308;2023-04-15T15:43:49;7.57;;;1.88;;
52396;SDS011;38322;53.108;6.308;2023-04-15T15:46:15;11.02;;;4.07;;
52396;SDS011;38322;53.108;6.308;2023-04-15T15:48:41;12.43;;;2.45;;
52396;SDS011;38322;53.108;6.308;2023-04-15T15:51:08;11.48;;;2.20;;
52396;SDS011;38322;53.108;6.308;2023-04-15T15:53:34;9.75;;;4.60;;
52396;SDS011;38322;53.108;6.308;2023-04-15T15:56:00;11.45;;;2.10;;
52396;SDS011;38322;53.108;6.308;2023-04-15T15:58:28;9.25;;;2.47;;
52396;SDS011;38322;53.108;6.308;2023-04-15T16:00:54;10.75;;;2.05;;
52396;SDS011;38322;53.108;6.308;2023-04-15T16:03:21;10.60;;;1.55;;
52396;SDS011;38322;53.108;6.308;2023-04-15T16:05:47;17.08;;;2.17;;
52396;SDS011;38322;53.108;6.308;2023-04-15T16:08:14;10.00;;;3.60;;
52396;SDS011;38322;53.108;6.308;2023-04-15T16:10:40;7.95;;;2.47;;
52396;SDS011;38322;53.108;6.308;2023-04-15T16:13:06;10.65;;;2.60;;
52396;SDS011;38322;53.108;6.308;2023-04-15T16:15:33;10.27;;;1.73;;
52396;SDS011;38322;53.108;6.308;2023-04-15T16:17:59;14.70;;;2.47;;
52396;SDS011;38322;53.108;6.308;2023-04-15T16:20:25;9.18;;;2.20;;
52396;SDS011;38322;53.108;6.308;2023-04-15T16:22:52;13.77;;;3.58;;
52396;SDS011;38322;53.108;6.308;2023-04-15T16:25:20;10.60;;;2.55;;
52396;SDS011;38322;53.108;6.308;2023-04-15T16:27:46;12.73;;;2.80;;
52396;SDS011;38322;53.108;6.308;2023-04-15T16:30:12;11.82;;;2.35;;
52396;SDS011;38322;53.108;6.308;2023-04-15T16:32:38;10.73;;;3.80;;
52396;SDS011;38322;53.108;6.308;2023-04-15T16:35:04;15.15;;;3.08;;
52396;SDS011;38322;53.108;6.308;2023-04-15T16:37:30;14.30;;;2.28;;
52396;SDS011;38322;53.108;6.308;2023-04-15T16:39:57;9.35;;;2.33;;
52396;SDS011;38322;53.108;6.308;2023-04-15T16:42:23;13.13;;;3.25;;
52396;SDS011;38322;53.108;6.308;2023-04-15T16:44:49;15.38;;;2.33;;
52396;SDS011;38322;53.108;6.308;2023-04-15T16:47:15;19.17;;;2.92;;
52396;SDS011;38322;53.108;6.308;2023-04-15T16:49:41;15.70;;;4.45;;
52396;SDS011;38322;53.108;6.308;2023-04-15T16:52:07;15.85;;;2.83;;
52396;SDS011;38322;53.108;6.308;2023-04-15T16:54:32;12.80;;;3.10;;
52396;SDS011;38322;53.108;6.308;2023-04-15T16:57:01;11.20;;;2.72;;
52396;SDS011;38322;53.108;6.308;2023-04-15T16:59:27;11.57;;;2.58;;
52396;SDS011;38322;53.108;6.308;2023-04-15T17:01:53;15.25;;;4.18;;
52396;SDS011;38322;53.108;6.308;2023-04-15T17:04:19;15.43;;;3.67;;
52396;SDS011;38322;53.108;6.308;2023-04-15T17:06:45;11.50;;;1.77;;
52396;SDS011;38322;53.108;6.308;2023-04-15T17:09:11;12.98;;;3.00;;
52396;SDS011;38322;53.108;6.308;2023-04-15T17:11:37;9.48;;;1.90;;
52396;SDS011;38322;53.108;6.308;2023-04-15T17:14:05;15.57;;;2.83;;
52396;SDS011;38322;53.108;6.308;2023-04-15T17:16:31;10.30;;;2.10;;
52396;SDS011;38322;53.108;6.308;2023-04-15T17:18:57;8.10;;;2.28;;
52396;SDS011;38322;53.108;6.308;2023-04-15T17:21:24;10.73;;;1.92;;
52396;SDS011;38322;53.108;6.308;2023-04-15T17:23:50;15.02;;;2.75;;
52396;SDS011;38322;53.108;6.308;2023-04-15T17:26:16;6.70;;;2.38;;
52396;SDS011;38322;53.108;6.308;2023-04-15T17:28:43;16.55;;;2.63;;
52396;SDS011;38322;53.108;6.308;2023-04-15T17:31:10;16.13;;;3.72;;
52396;SDS011;38322;53.108;6.308;2023-04-15T17:33:36;12.85;;;2.45;;
52396;SDS011;38322;53.108;6.308;2023-04-15T17:36:03;8.43;;;2.10;;
52396;SDS011;38322;53.108;6.308;2023-04-15T17:38:29;16.00;;;2.25;;
52396;SDS011;38322;53.108;6.308;2023-04-15T17:40:55;13.98;;;3.45;;
52396;SDS011;38322;53.108;6.308;2023-04-15T17:43:21;18.85;;;3.00;;
52396;SDS011;38322;53.108;6.308;2023-04-15T17:45:47;11.00;;;2.60;;
52396;SDS011;38322;53.108;6.308;2023-04-15T17:48:13;17.60;;;2.70;;
52396;SDS011;38322;53.108;6.308;2023-04-15T17:50:39;12.80;;;2.90;;
52396;SDS011;38322;53.108;6.308;2023-04-15T17:53:05;9.52;;;2.38;;
52396;SDS011;38322;53.108;6.308;2023-04-15T17:55:31;12.57;;;4.57;;
52396;SDS011;38322;53.108;6.308;2023-04-15T17:57:58;17.20;;;2.40;;
52396;SDS011;38322;53.108;6.308;2023-04-15T18:00:24;22.95;;;2.75;;
52396;SDS011;38322;53.108;6.308;2023-04-15T18:02:50;16.90;;;2.83;;
52396;SDS011;38322;53.108;6.308;2023-04-15T18:05:16;14.70;;;3.03;;
52396;SDS011;38322;53.108;6.308;2023-04-15T18:07:43;13.43;;;2.63;;
52396;SDS011;38322;53.108;6.308;2023-04-15T18:10:10;12.68;;;2.85;;
52396;SDS011;38322;53.108;6.308;2023-04-15T18:12:36;21.65;;;2.80;;
52396;SDS011;38322;53.108;6.308;2023-04-15T18:15:02;13.35;;;2.70;;
52396;SDS011;38322;53.108;6.308;2023-04-15T18:17:28;18.85;;;3.00;;
52396;SDS011;38322;53.108;6.308;2023-04-15T18:19:54;14.93;;;2.22;;
52396;SDS011;38322;53.108;6.308;2023-04-15T18:22:20;19.50;;;2.95;;
52396;SDS011;38322;53.108;6.308;2023-04-15T18:24:46;9.60;;;2.20;;
52396;SDS011;38322;53.108;6.308;2023-04-15T18:27:14;11.88;;;2.85;;
52396;SDS011;38322;53.108;6.308;2023-04-15T18:29:41;13.45;;;2.75;;
52396;SDS011;38322;53.108;6.308;2023-04-15T18:32:08;19.67;;;5.60;;
52396;SDS011;38322;53.108;6.308;2023-04-15T18:34:34;17.90;;;3.72;;
52396;SDS011;38322;53.108;6.308;2023-04-15T18:37:00;23.17;;;5.43;;
52396;SDS011;38322;53.108;6.308;2023-04-15T18:39:26;14.48;;;3.75;;
52396;SDS011;38322;53.108;6.308;2023-04-15T18:41:52;17.85;;;3.92;;
52396;SDS011;38322;53.108;6.308;2023-04-15T18:44:20;16.85;;;3.75;;
52396;SDS011;38322;53.108;6.308;2023-04-15T18:46:47;15.43;;;4.13;;
52396;SDS011;38322;53.108;6.308;2023-04-15T18:49:13;19.63;;;4.95;;
52396;SDS011;38322;53.108;6.308;2023-04-15T18:51:38;18.75;;;4.00;;
52396;SDS011;38322;53.108;6.308;2023-04-15T18:54:05;16.77;;;2.83;;
52396;SDS011;38322;53.108;6.308;2023-04-15T18:56:31;32.03;;;4.95;;
52396;SDS011;38322;53.108;6.308;2023-04-15T18:58:57;24.75;;;5.85;;
52396;SDS011;38322;53.108;6.308;2023-04-15T19:01:23;20.17;;;4.68;;
52396;SDS011;38322;53.108;6.308;2023-04-15T19:03:49;20.58;;;4.97;;
52396;SDS011;38322;53.108;6.308;2023-04-15T19:06:15;20.38;;;5.05;;
52396;SDS011;38322;53.108;6.308;2023-04-15T19:08:41;19.35;;;4.68;;
52396;SDS011;38322;53.108;6.308;2023-04-15T19:11:07;19.35;;;4.65;;
52396;SDS011;38322;53.108;6.308;2023-04-15T19:13:33;15.63;;;5.20;;
52396;SDS011;38322;53.108;6.308;2023-04-15T19:15:59;20.77;;;7.00;;
52396;SDS011;38322;53.108;6.308;2023-04-15T19:18:25;32.75;;;7.43;;
52396;SDS011;38322;53.108;6.308;2023-04-15T19:20:51;26.15;;;6.03;;
52396;SDS011;38322;53.108;6.308;2023-04-15T19:23:20;43.65;;;7.68;;
52396;SDS011;38322;53.108;6.308;2023-04-15T19:25:46;22.90;;;5.78;;
52396;SDS011;38322;53.108;6.308;2023-04-15T19:28:12;30.95;;;8.35;;
52396;SDS011;38322;53.108;6.308;2023-04-15T19:30:38;26.30;;;7.45;;
52396;SDS011;38322;53.108;6.308;2023-04-15T19:33:05;25.75;;;6.57;;
52396;SDS011;38322;53.108;6.308;2023-04-15T19:35:31;24.42;;;8.57;;
52396;SDS011;38322;53.108;6.308;2023-04-15T19:37:57;23.60;;;8.43;;
52396;SDS011;38322;53.108;6.308;2023-04-15T19:40:23;23.80;;;8.55;;
52396;SDS011;38322;53.108;6.308;2023-04-15T19:42:49;33.75;;;9.00;;
52396;SDS011;38322;53.108;6.308;2023-04-15T19:45:15;17.80;;;7.85;;
52396;SDS011;38322;53.108;6.308;2023-04-15T19:47:41;22.75;;;9.48;;
52396;SDS011;38322;53.108;6.308;2023-04-15T19:50:07;27.35;;;8.35;;
52396;SDS011;38322;53.108;6.308;2023-04-15T19:52:35;32.00;;;10.20;;